sensor_id;sensor_type;location;lat;lon;timestamp;P1;durP1;ratioP1;P2;durP2;ratioP2
70920;SDS011;58572;48.110;19.838;2023-03-22T00:00:54;11.85;;;6.28;;
70920;SDS011;58572;48.110;19.838;2023-03-22T00:03:22;9.02;;;5.25;;
70920;SDS011;58572;48.110;19.838;2023-03-22T00:05:54;10.20;;;5.45;;
70920;SDS011;58572;48.110;19.838;2023-03-22T00:08:22;8.88;;;5.45;;
70920;SDS011;58572;48.110;19.838;2023-03-22T00:10:49;9.98;;;5.03;;
70920;SDS011;58572;48.110;19.838;2023-03-22T00:13:16;9.48;;;5.38;;
70920;SDS011;58572;48.110;19.838;2023-03-22T00:15:43;10.10;;;5.45;;
70920;SDS011;58572;48.110;19.838;2023-03-22T00:18:14;10.00;;;5.10;;
70920;SDS011;58572;48.110;19.838;2023-03-22T00:20:48;8.38;;;5.22;;
70920;SDS011;58572;48.110;19.838;2023-03-22T00:23:15;8.73;;;5.65;;
70920;SDS011;58572;48.110;19.838;2023-03-22T00:25:42;9.32;;;5.45;;
70920;SDS011;58572;48.110;19.838;2023-03-22T00:28:10;9.50;;;5.65;;
70920;SDS011;58572;48.110;19.838;2023-03-22T00:30:37;10.18;;;5.70;;
70920;SDS011;58572;48.110;19.838;2023-03-22T00:33:05;8.88;;;4.80;;
70920;SDS011;58572;48.110;19.838;2023-03-22T00:35:34;8.45;;;4.88;;
70920;SDS011;58572;48.110;19.838;2023-03-22T00:38:01;10.48;;;5.35;;
70920;SDS011;58572;48.110;19.838;2023-03-22T00:40:38;9.77;;;5.78;;
70920;SDS011;58572;48.110;19.838;2023-03-22T00:45:33;10.65;;;5.22;;
70920;SDS011;58572;48.110;19.838;2023-03-22T00:48:02;9.38;;;5.30;;
70920;SDS011;58572;48.110;19.838;2023-03-22T00:50:29;7.43;;;5.10;;
70920;SDS011;58572;48.110;19.838;2023-03-22T00:52:57;9.13;;;5.40;;
70920;SDS011;58572;48.110;19.838;2023-03-22T00:55:25;9.88;;;5.18;;
70920;SDS011;58572;48.110;19.838;2023-03-22T00:57:52;8.82;;;5.20;;
70920;SDS011;58572;48.110;19.838;2023-03-22T01:00:19;10.18;;;5.32;;
70920;SDS011;58572;48.110;19.838;2023-03-22T01:02:46;10.43;;;5.45;;
70920;SDS011;58572;48.110;19.838;2023-03-22T01:05:17;8.82;;;5.53;;
70920;SDS011;58572;48.110;19.838;2023-03-22T01:07:46;8.57;;;5.22;;
70920;SDS011;58572;48.110;19.838;2023-03-22T01:10:17;8.70;;;5.30;;
70920;SDS011;58572;48.110;19.838;2023-03-22T01:12:44;11.18;;;5.35;;
70920;SDS011;58572;48.110;19.838;2023-03-22T01:15:11;7.82;;;4.55;;
70920;SDS011;58572;48.110;19.838;2023-03-22T01:17:39;9.20;;;5.38;;
70920;SDS011;58572;48.110;19.838;2023-03-22T01:20:06;9.85;;;5.43;;
70920;SDS011;58572;48.110;19.838;2023-03-22T01:22:35;10.05;;;5.43;;
70920;SDS011;58572;48.110;19.838;2023-03-22T01:25:02;8.02;;;5.00;;
70920;SDS011;58572;48.110;19.838;2023-03-22T01:27:31;8.98;;;5.53;;
70920;SDS011;58572;48.110;19.838;2023-03-22T01:29:58;8.23;;;5.38;;
70920;SDS011;58572;48.110;19.838;2023-03-22T01:32:25;9.27;;;4.28;;
70920;SDS011;58572;48.110;19.838;2023-03-22T01:34:52;10.60;;;5.80;;
70920;SDS011;58572;48.110;19.838;2023-03-22T01:37:19;9.88;;;5.50;;
70920;SDS011;58572;48.110;19.838;2023-03-22T01:39:49;9.25;;;6.00;;
70920;SDS011;58572;48.110;19.838;2023-03-22T01:42:16;11.93;;;5.97;;
70920;SDS011;58572;48.110;19.838;2023-03-22T01:47:47;10.10;;;4.97;;
70920;SDS011;58572;48.110;19.838;2023-03-22T01:50:17;9.55;;;5.40;;
70920;SDS011;58572;48.110;19.838;2023-03-22T01:52:45;9.93;;;5.53;;
70920;SDS011;58572;48.110;19.838;2023-03-22T01:55:13;8.95;;;5.57;;
70920;SDS011;58572;48.110;19.838;2023-03-22T01:57:42;9.13;;;5.13;;
70920;SDS011;58572;48.110;19.838;2023-03-22T02:00:11;7.70;;;4.75;;
70920;SDS011;58572;48.110;19.838;2023-03-22T02:02:40;9.25;;;5.03;;
70920;SDS011;58572;48.110;19.838;2023-03-22T02:05:09;11.45;;;5.78;;
70920;SDS011;58572;48.110;19.838;2023-03-22T02:07:37;8.40;;;5.22;;
70920;SDS011;58572;48.110;19.838;2023-03-22T02:10:08;8.20;;;5.30;;
70920;SDS011;58572;48.110;19.838;2023-03-22T02:12:39;9.82;;;4.85;;
70920;SDS011;58572;48.110;19.838;2023-03-22T02:15:17;10.80;;;5.18;;
70920;SDS011;58572;48.110;19.838;2023-03-22T02:17:51;8.15;;;4.97;;
70920;SDS011;58572;48.110;19.838;2023-03-22T02:20:39;9.25;;;5.70;;
70920;SDS011;58572;48.110;19.838;2023-03-22T02:38:16;9.88;;;5.03;;
70920;SDS011;58572;48.110;19.838;2023-03-22T02:41:09;7.80;;;4.78;;
70920;SDS011;58572;48.110;19.838;2023-03-22T02:43:40;7.72;;;4.85;;
70920;SDS011;58572;48.110;19.838;2023-03-22T02:46:17;8.68;;;5.22;;
70920;SDS011;58572;48.110;19.838;2023-03-22T02:48:50;10.18;;;5.53;;
70920;SDS011;58572;48.110;19.838;2023-03-22T02:51:27;10.80;;;5.05;;
70920;SDS011;58572;48.110;19.838;2023-03-22T02:54:01;10.07;;;5.40;;
70920;SDS011;58572;48.110;19.838;2023-03-22T02:56:34;10.02;;;5.72;;
70920;SDS011;58572;48.110;19.838;2023-03-22T02:59:05;10.82;;;5.78;;
70920;SDS011;58572;48.110;19.838;2023-03-22T03:01:37;11.90;;;7.18;;
70920;SDS011;58572;48.110;19.838;2023-03-22T03:04:09;9.27;;;5.05;;
70920;SDS011;58572;48.110;19.838;2023-03-22T03:06:41;10.05;;;5.53;;
70920;SDS011;58572;48.110;19.838;2023-03-22T03:09:11;8.10;;;5.07;;
70920;SDS011;58572;48.110;19.838;2023-03-22T03:11:44;10.18;;;5.72;;
70920;SDS011;58572;48.110;19.838;2023-03-22T03:14:19;10.32;;;5.82;;
70920;SDS011;58572;48.110;19.838;2023-03-22T03:16:48;16.23;;;8.25;;
70920;SDS011;58572;48.110;19.838;2023-03-22T03:19:24;16.98;;;9.90;;
70920;SDS011;58572;48.110;19.838;2023-03-22T03:21:58;17.00;;;8.77;;
70920;SDS011;58572;48.110;19.838;2023-03-22T03:24:31;27.35;;;14.00;;
70920;SDS011;58572;48.110;19.838;2023-03-22T03:27:04;16.40;;;10.05;;
70920;SDS011;58572;48.110;19.838;2023-03-22T03:29:41;20.75;;;12.02;;
70920;SDS011;58572;48.110;19.838;2023-03-22T03:32:15;25.20;;;13.40;;
70920;SDS011;58572;48.110;19.838;2023-03-22T03:34:47;23.10;;;11.57;;
70920;SDS011;58572;48.110;19.838;2023-03-22T03:37:18;17.77;;;10.05;;
70920;SDS011;58572;48.110;19.838;2023-03-22T03:39:49;15.80;;;9.70;;
70920;SDS011;58572;48.110;19.838;2023-03-22T03:42:21;15.15;;;8.55;;
70920;SDS011;58572;48.110;19.838;2023-03-22T03:44:52;8.35;;;5.53;;
70920;SDS011;58572;48.110;19.838;2023-03-22T03:47:20;9.10;;;4.95;;
70920;SDS011;58572;48.110;19.838;2023-03-22T03:49:48;11.10;;;6.40;;
70920;SDS011;58572;48.110;19.838;2023-03-22T03:52:16;10.30;;;6.78;;
70920;SDS011;58572;48.110;19.838;2023-03-22T03:54:43;11.20;;;5.97;;
70920;SDS011;58572;48.110;19.838;2023-03-22T03:57:10;9.93;;;5.85;;
70920;SDS011;58572;48.110;19.838;2023-03-22T03:59:38;9.55;;;5.57;;
70920;SDS011;58572;48.110;19.838;2023-03-22T04:02:05;8.80;;;5.60;;
70920;SDS011;58572;48.110;19.838;2023-03-22T04:04:32;9.80;;;5.35;;
70920;SDS011;58572;48.110;19.838;2023-03-22T04:07:00;15.32;;;7.88;;
70920;SDS011;58572;48.110;19.838;2023-03-22T04:09:29;14.68;;;7.88;;
70920;SDS011;58572;48.110;19.838;2023-03-22T04:11:57;21.10;;;10.15;;
70920;SDS011;58572;48.110;19.838;2023-03-22T04:14:25;16.45;;;9.27;;
70920;SDS011;58572;48.110;19.838;2023-03-22T04:16:54;18.02;;;8.70;;
70920;SDS011;58572;48.110;19.838;2023-03-22T04:19:21;12.23;;;6.82;;
70920;SDS011;58572;48.110;19.838;2023-03-22T04:21:48;13.38;;;7.22;;
70920;SDS011;58572;48.110;19.838;2023-03-22T04:24:17;12.20;;;6.53;;
70920;SDS011;58572;48.110;19.838;2023-03-22T04:29:11;9.85;;;5.95;;
70920;SDS011;58572;48.110;19.838;2023-03-22T04:31:38;9.45;;;5.80;;
70920;SDS011;58572;48.110;19.838;2023-03-22T04:34:07;11.32;;;6.65;;
70920;SDS011;58572;48.110;19.838;2023-03-22T04:36:34;13.05;;;6.75;;
70920;SDS011;58572;48.110;19.838;2023-03-22T04:39:03;10.93;;;6.68;;
70920;SDS011;58572;48.110;19.838;2023-03-22T04:41:32;10.23;;;6.18;;
70920;SDS011;58572;48.110;19.838;2023-03-22T04:44:00;12.07;;;6.25;;
70920;SDS011;58572;48.110;19.838;2023-03-22T04:48:57;8.77;;;5.20;;
70920;SDS011;58572;48.110;19.838;2023-03-22T04:51:25;8.98;;;5.15;;
70920;SDS011;58572;48.110;19.838;2023-03-22T04:53:54;9.88;;;5.95;;
70920;SDS011;58572;48.110;19.838;2023-03-22T04:56:21;10.60;;;5.57;;
70920;SDS011;58572;48.110;19.838;2023-03-22T04:58:49;10.95;;;5.22;;
70920;SDS011;58572;48.110;19.838;2023-03-22T05:01:16;11.00;;;5.25;;
70920;SDS011;58572;48.110;19.838;2023-03-22T05:06:11;10.80;;;6.22;;
70920;SDS011;58572;48.110;19.838;2023-03-22T05:11:08;10.68;;;5.45;;
70920;SDS011;58572;48.110;19.838;2023-03-22T05:13:37;10.07;;;6.13;;
70920;SDS011;58572;48.110;19.838;2023-03-22T05:16:05;13.70;;;6.38;;
70920;SDS011;58572;48.110;19.838;2023-03-22T05:21:02;9.82;;;5.53;;
70920;SDS011;58572;48.110;19.838;2023-03-22T05:23:31;8.75;;;5.60;;
70920;SDS011;58572;48.110;19.838;2023-03-22T05:25:59;8.90;;;6.30;;
70920;SDS011;58572;48.110;19.838;2023-03-22T05:28:28;9.43;;;5.35;;
70920;SDS011;58572;48.110;19.838;2023-03-22T05:30:56;9.60;;;5.53;;
70920;SDS011;58572;48.110;19.838;2023-03-22T05:33:23;12.52;;;5.38;;
70920;SDS011;58572;48.110;19.838;2023-03-22T05:35:52;9.77;;;5.60;;
70920;SDS011;58572;48.110;19.838;2023-03-22T05:38:21;12.93;;;6.25;;
70920;SDS011;58572;48.110;19.838;2023-03-22T05:40:48;9.70;;;6.07;;
70920;SDS011;58572;48.110;19.838;2023-03-22T05:43:17;8.90;;;5.40;;
70920;SDS011;58572;48.110;19.838;2023-03-22T05:45:44;8.93;;;5.03;;
70920;SDS011;58572;48.110;19.838;2023-03-22T05:48:12;9.30;;;5.55;;
70920;SDS011;58572;48.110;19.838;2023-03-22T05:50:39;8.30;;;5.13;;
70920;SDS011;58572;48.110;19.838;2023-03-22T05:53:07;8.93;;;5.85;;
70920;SDS011;58572;48.110;19.838;2023-03-22T05:55:34;8.50;;;4.53;;
70920;SDS011;58572;48.110;19.838;2023-03-22T05:58:02;8.48;;;4.90;;
70920;SDS011;58572;48.110;19.838;2023-03-22T06:00:30;8.20;;;4.85;;
70920;SDS011;58572;48.110;19.838;2023-03-22T06:02:57;9.30;;;4.80;;
70920;SDS011;58572;48.110;19.838;2023-03-22T06:05:27;9.88;;;5.28;;
70920;SDS011;58572;48.110;19.838;2023-03-22T06:07:56;8.73;;;5.43;;
70920;SDS011;58572;48.110;19.838;2023-03-22T06:10:23;9.05;;;4.93;;
70920;SDS011;58572;48.110;19.838;2023-03-22T06:12:52;8.88;;;5.30;;
70920;SDS011;58572;48.110;19.838;2023-03-22T06:15:19;8.30;;;4.72;;
70920;SDS011;58572;48.110;19.838;2023-03-22T06:17:48;8.63;;;5.20;;
70920;SDS011;58572;48.110;19.838;2023-03-22T06:20:15;8.68;;;5.20;;
70920;SDS011;58572;48.110;19.838;2023-03-22T06:22:43;6.97;;;4.32;;
70920;SDS011;58572;48.110;19.838;2023-03-22T06:25:10;8.02;;;4.85;;
70920;SDS011;58572;48.110;19.838;2023-03-22T06:27:38;7.18;;;4.63;;
70920;SDS011;58572;48.110;19.838;2023-03-22T06:30:06;8.25;;;5.15;;
70920;SDS011;58572;48.110;19.838;2023-03-22T06:32:34;8.65;;;5.15;;
70920;SDS011;58572;48.110;19.838;2023-03-22T06:35:02;8.57;;;5.57;;
70920;SDS011;58572;48.110;19.838;2023-03-22T06:37:30;8.00;;;5.32;;
70920;SDS011;58572;48.110;19.838;2023-03-22T06:39:57;8.55;;;5.15;;
70920;SDS011;58572;48.110;19.838;2023-03-22T06:42:24;9.13;;;6.20;;
70920;SDS011;58572;48.110;19.838;2023-03-22T06:44:51;8.48;;;5.93;;
70920;SDS011;58572;48.110;19.838;2023-03-22T06:47:19;12.02;;;6.60;;
70920;SDS011;58572;48.110;19.838;2023-03-22T06:49:46;8.82;;;5.78;;
70920;SDS011;58572;48.110;19.838;2023-03-22T06:52:15;9.52;;;5.40;;
70920;SDS011;58572;48.110;19.838;2023-03-22T06:54:42;9.75;;;6.82;;
70920;SDS011;58572;48.110;19.838;2023-03-22T06:57:09;10.63;;;6.95;;
70920;SDS011;58572;48.110;19.838;2023-03-22T06:59:36;10.48;;;6.75;;
70920;SDS011;58572;48.110;19.838;2023-03-22T07:02:04;9.40;;;6.47;;
70920;SDS011;58572;48.110;19.838;2023-03-22T07:04:32;12.77;;;7.07;;
70920;SDS011;58572;48.110;19.838;2023-03-22T07:06:59;11.95;;;7.50;;
70920;SDS011;58572;48.110;19.838;2023-03-22T07:09:27;11.27;;;7.82;;
70920;SDS011;58572;48.110;19.838;2023-03-22T07:11:54;10.70;;;7.00;;
70920;SDS011;58572;48.110;19.838;2023-03-22T07:14:21;14.00;;;8.73;;
70920;SDS011;58572;48.110;19.838;2023-03-22T07:16:48;14.45;;;8.68;;
70920;SDS011;58572;48.110;19.838;2023-03-22T07:19:15;13.98;;;7.85;;
70920;SDS011;58572;48.110;19.838;2023-03-22T07:21:43;15.73;;;8.65;;
70920;SDS011;58572;48.110;19.838;2023-03-22T07:24:10;13.82;;;9.32;;
70920;SDS011;58572;48.110;19.838;2023-03-22T07:26:39;15.52;;;9.18;;
70920;SDS011;58572;48.110;19.838;2023-03-22T07:29:06;15.23;;;9.27;;
70920;SDS011;58572;48.110;19.838;2023-03-22T07:31:33;15.52;;;10.23;;
70920;SDS011;58572;48.110;19.838;2023-03-22T07:34:01;15.27;;;10.20;;
70920;SDS011;58572;48.110;19.838;2023-03-22T07:36:28;12.40;;;7.22;;
70920;SDS011;58572;48.110;19.838;2023-03-22T07:38:55;16.00;;;10.80;;
70920;SDS011;58572;48.110;19.838;2023-03-22T07:41:22;15.00;;;9.85;;
70920;SDS011;58572;48.110;19.838;2023-03-22T07:43:52;14.88;;;8.77;;
70920;SDS011;58572;48.110;19.838;2023-03-22T07:46:19;17.02;;;9.05;;
70920;SDS011;58572;48.110;19.838;2023-03-22T07:48:46;13.05;;;7.82;;
70920;SDS011;58572;48.110;19.838;2023-03-22T07:51:13;16.02;;;8.57;;
70920;SDS011;58572;48.110;19.838;2023-03-22T07:53:41;15.57;;;9.52;;
70920;SDS011;58572;48.110;19.838;2023-03-22T07:56:08;15.48;;;8.38;;
70920;SDS011;58572;48.110;19.838;2023-03-22T08:01:05;14.20;;;7.93;;
70920;SDS011;58572;48.110;19.838;2023-03-22T08:03:33;16.27;;;9.50;;
70920;SDS011;58572;48.110;19.838;2023-03-22T08:06:02;16.23;;;8.75;;
70920;SDS011;58572;48.110;19.838;2023-03-22T08:08:32;13.57;;;8.77;;
70920;SDS011;58572;48.110;19.838;2023-03-22T08:10:59;13.40;;;8.57;;
70920;SDS011;58572;48.110;19.838;2023-03-22T08:13:26;13.20;;;7.20;;
70920;SDS011;58572;48.110;19.838;2023-03-22T08:15:53;14.00;;;8.52;;
70920;SDS011;58572;48.110;19.838;2023-03-22T08:18:22;11.55;;;7.25;;
70920;SDS011;58572;48.110;19.838;2023-03-22T08:20:51;12.75;;;7.68;;
70920;SDS011;58572;48.110;19.838;2023-03-22T08:23:20;16.55;;;7.80;;
70920;SDS011;58572;48.110;19.838;2023-03-22T08:25:47;10.48;;;6.90;;
70920;SDS011;58572;48.110;19.838;2023-03-22T08:28:14;13.52;;;7.50;;
70920;SDS011;58572;48.110;19.838;2023-03-22T08:30:42;12.45;;;6.68;;
70920;SDS011;58572;48.110;19.838;2023-03-22T08:33:09;11.18;;;7.05;;
70920;SDS011;58572;48.110;19.838;2023-03-22T08:35:37;10.93;;;6.95;;
70920;SDS011;58572;48.110;19.838;2023-03-22T08:38:04;12.00;;;6.70;;
70920;SDS011;58572;48.110;19.838;2023-03-22T08:40:31;10.85;;;5.68;;
70920;SDS011;58572;48.110;19.838;2023-03-22T08:42:59;12.00;;;7.80;;
70920;SDS011;58572;48.110;19.838;2023-03-22T08:45:26;9.35;;;5.95;;
70920;SDS011;58572;48.110;19.838;2023-03-22T08:47:53;10.77;;;6.70;;
70920;SDS011;58572;48.110;19.838;2023-03-22T08:50:20;10.40;;;6.38;;
70920;SDS011;58572;48.110;19.838;2023-03-22T08:52:49;11.38;;;6.65;;
70920;SDS011;58572;48.110;19.838;2023-03-22T08:55:17;9.68;;;6.78;;
70920;SDS011;58572;48.110;19.838;2023-03-22T08:57:44;10.18;;;6.32;;
70920;SDS011;58572;48.110;19.838;2023-03-22T09:00:15;12.60;;;7.15;;
70920;SDS011;58572;48.110;19.838;2023-03-22T09:02:43;12.35;;;6.97;;
70920;SDS011;58572;48.110;19.838;2023-03-22T09:05:12;10.45;;;6.40;;
70920;SDS011;58572;48.110;19.838;2023-03-22T09:07:39;9.90;;;6.10;;
70920;SDS011;58572;48.110;19.838;2023-03-22T09:10:08;11.60;;;5.55;;
70920;SDS011;58572;48.110;19.838;2023-03-22T09:12:36;9.93;;;5.65;;
70920;SDS011;58572;48.110;19.838;2023-03-22T09:15:03;9.40;;;5.70;;
70920;SDS011;58572;48.110;19.838;2023-03-22T09:17:31;10.10;;;5.65;;
70920;SDS011;58572;48.110;19.838;2023-03-22T09:19:58;10.20;;;6.22;;
70920;SDS011;58572;48.110;19.838;2023-03-22T09:22:25;9.77;;;5.75;;
70920;SDS011;58572;48.110;19.838;2023-03-22T09:24:52;10.20;;;6.53;;
70920;SDS011;58572;48.110;19.838;2023-03-22T09:27:21;10.90;;;6.80;;
70920;SDS011;58572;48.110;19.838;2023-03-22T09:29:48;9.35;;;6.45;;
70920;SDS011;58572;48.110;19.838;2023-03-22T09:32:16;8.52;;;6.22;;
70920;SDS011;58572;48.110;19.838;2023-03-22T09:34:43;10.13;;;6.57;;
70920;SDS011;58572;48.110;19.838;2023-03-22T09:37:10;9.00;;;6.28;;
70920;SDS011;58572;48.110;19.838;2023-03-22T09:39:39;10.20;;;5.35;;
70920;SDS011;58572;48.110;19.838;2023-03-22T09:42:18;8.40;;;5.35;;
70920;SDS011;58572;48.110;19.838;2023-03-22T09:44:53;10.15;;;5.80;;
70920;SDS011;58572;48.110;19.838;2023-03-22T09:47:24;8.85;;;5.55;;
70920;SDS011;58572;48.110;19.838;2023-03-22T09:50:02;7.95;;;5.00;;
70920;SDS011;58572;48.110;19.838;2023-03-22T09:52:33;6.57;;;4.22;;
70920;SDS011;58572;48.110;19.838;2023-03-22T09:55:01;8.07;;;5.40;;
70920;SDS011;58572;48.110;19.838;2023-03-22T09:57:31;7.10;;;5.60;;
70920;SDS011;58572;48.110;19.838;2023-03-22T10:00:02;8.18;;;4.90;;
70920;SDS011;58572;48.110;19.838;2023-03-22T10:02:45;8.60;;;5.28;;
70920;SDS011;58572;48.110;19.838;2023-03-22T10:05:20;7.57;;;4.85;;
70920;SDS011;58572;48.110;19.838;2023-03-22T10:08:01;8.23;;;5.28;;
70920;SDS011;58572;48.110;19.838;2023-03-22T10:10:47;7.68;;;5.10;;
70920;SDS011;58572;48.110;19.838;2023-03-22T10:13:19;8.73;;;5.15;;
70920;SDS011;58572;48.110;19.838;2023-03-22T10:15:49;7.00;;;4.22;;
70920;SDS011;58572;48.110;19.838;2023-03-22T10:18:19;8.68;;;5.50;;
70920;SDS011;58572;48.110;19.838;2023-03-22T10:20:52;8.32;;;5.53;;
70920;SDS011;58572;48.110;19.838;2023-03-22T10:23:26;7.40;;;4.82;;
70920;SDS011;58572;48.110;19.838;2023-03-22T10:25:58;8.85;;;5.95;;
70920;SDS011;58572;48.110;19.838;2023-03-22T10:28:30;8.48;;;4.68;;
70920;SDS011;58572;48.110;19.838;2023-03-22T10:31:03;8.88;;;5.43;;
70920;SDS011;58572;48.110;19.838;2023-03-22T10:33:32;9.40;;;4.88;;
70920;SDS011;58572;48.110;19.838;2023-03-22T10:36:04;7.93;;;5.18;;
70920;SDS011;58572;48.110;19.838;2023-03-22T10:38:33;6.70;;;5.00;;
70920;SDS011;58572;48.110;19.838;2023-03-22T10:41:06;7.78;;;4.85;;
70920;SDS011;58572;48.110;19.838;2023-03-22T10:43:36;7.28;;;5.22;;
70920;SDS011;58572;48.110;19.838;2023-03-22T10:46:06;7.75;;;4.72;;
70920;SDS011;58572;48.110;19.838;2023-03-22T10:48:39;6.32;;;4.65;;
70920;SDS011;58572;48.110;19.838;2023-03-22T10:51:10;8.13;;;4.68;;
70920;SDS011;58572;48.110;19.838;2023-03-22T10:53:47;7.60;;;5.38;;
70920;SDS011;58572;48.110;19.838;2023-03-22T10:56:17;7.65;;;4.25;;
70920;SDS011;58572;48.110;19.838;2023-03-22T10:58:47;7.10;;;4.97;;
70920;SDS011;58572;48.110;19.838;2023-03-22T11:01:15;7.50;;;4.00;;
70920;SDS011;58572;48.110;19.838;2023-03-22T11:03:59;8.43;;;3.70;;
70920;SDS011;58572;48.110;19.838;2023-03-22T11:06:37;6.70;;;4.35;;
70920;SDS011;58572;48.110;19.838;2023-03-22T11:09:09;6.10;;;4.18;;
70920;SDS011;58572;48.110;19.838;2023-03-22T11:11:38;5.50;;;3.63;;
70920;SDS011;58572;48.110;19.838;2023-03-22T11:14:15;5.93;;;4.03;;
70920;SDS011;58572;48.110;19.838;2023-03-22T11:16:46;6.13;;;4.03;;
70920;SDS011;58572;48.110;19.838;2023-03-22T11:19:19;6.43;;;4.35;;
70920;SDS011;58572;48.110;19.838;2023-03-22T11:21:51;7.18;;;3.92;;
70920;SDS011;58572;48.110;19.838;2023-03-22T11:24:19;5.80;;;3.40;;
70920;SDS011;58572;48.110;19.838;2023-03-22T11:27:00;6.78;;;4.63;;
70920;SDS011;58572;48.110;19.838;2023-03-22T11:29:33;7.95;;;4.07;;
70920;SDS011;58572;48.110;19.838;2023-03-22T11:32:18;6.00;;;4.13;;
70920;SDS011;58572;48.110;19.838;2023-03-22T11:34:49;6.43;;;3.78;;
70920;SDS011;58572;48.110;19.838;2023-03-22T11:37:25;6.00;;;3.55;;
70920;SDS011;58572;48.110;19.838;2023-03-22T11:39:52;5.10;;;2.95;;
70920;SDS011;58572;48.110;19.838;2023-03-22T11:42:25;7.50;;;3.80;;
70920;SDS011;58572;48.110;19.838;2023-03-22T11:44:55;6.15;;;3.72;;
70920;SDS011;58572;48.110;19.838;2023-03-22T11:47:24;6.05;;;4.10;;
70920;SDS011;58572;48.110;19.838;2023-03-22T11:49:52;7.00;;;4.75;;
70920;SDS011;58572;48.110;19.838;2023-03-22T11:52:22;5.97;;;4.00;;
70920;SDS011;58572;48.110;19.838;2023-03-22T11:54:52;5.50;;;3.40;;
70920;SDS011;58572;48.110;19.838;2023-03-22T11:57:21;6.15;;;3.45;;
70920;SDS011;58572;48.110;19.838;2023-03-22T11:59:53;5.93;;;3.90;;
70920;SDS011;58572;48.110;19.838;2023-03-22T12:02:25;7.32;;;4.40;;
70920;SDS011;58572;48.110;19.838;2023-03-22T12:04:56;4.90;;;3.38;;
70920;SDS011;58572;48.110;19.838;2023-03-22T12:07:30;4.78;;;3.03;;
70920;SDS011;58572;48.110;19.838;2023-03-22T12:10:00;5.53;;;3.20;;
70920;SDS011;58572;48.110;19.838;2023-03-22T12:12:33;5.05;;;3.47;;
70920;SDS011;58572;48.110;19.838;2023-03-22T12:15:05;5.38;;;3.20;;
70920;SDS011;58572;48.110;19.838;2023-03-22T12:17:40;5.03;;;3.55;;
70920;SDS011;58572;48.110;19.838;2023-03-22T12:20:14;4.75;;;3.38;;
70920;SDS011;58572;48.110;19.838;2023-03-22T12:22:47;5.63;;;3.55;;
70920;SDS011;58572;48.110;19.838;2023-03-22T12:25:18;5.45;;;3.15;;
70920;SDS011;58572;48.110;19.838;2023-03-22T12:27:47;5.53;;;2.97;;
70920;SDS011;58572;48.110;19.838;2023-03-22T12:30:20;5.65;;;3.75;;
70920;SDS011;58572;48.110;19.838;2023-03-22T12:32:51;5.95;;;3.22;;
70920;SDS011;58572;48.110;19.838;2023-03-22T12:35:26;6.63;;;3.63;;
70920;SDS011;58572;48.110;19.838;2023-03-22T12:37:56;6.10;;;3.25;;
70920;SDS011;58572;48.110;19.838;2023-03-22T12:40:27;5.13;;;3.42;;
70920;SDS011;58572;48.110;19.838;2023-03-22T12:42:59;7.32;;;4.50;;
70920;SDS011;58572;48.110;19.838;2023-03-22T12:45:34;6.65;;;4.50;;
70920;SDS011;58572;48.110;19.838;2023-03-22T12:48:07;6.43;;;3.38;;
70920;SDS011;58572;48.110;19.838;2023-03-22T12:50:41;6.57;;;4.10;;
70920;SDS011;58572;48.110;19.838;2023-03-22T12:53:11;5.85;;;3.70;;
70920;SDS011;58572;48.110;19.838;2023-03-22T12:55:40;5.93;;;3.63;;
70920;SDS011;58572;48.110;19.838;2023-03-22T12:58:10;5.82;;;3.35;;
70920;SDS011;58572;48.110;19.838;2023-03-22T13:00:45;6.97;;;4.07;;
70920;SDS011;58572;48.110;19.838;2023-03-22T13:03:19;6.63;;;4.57;;
70920;SDS011;58572;48.110;19.838;2023-03-22T13:05:58;7.03;;;3.53;;
70920;SDS011;58572;48.110;19.838;2023-03-22T13:08:38;6.85;;;4.15;;
70920;SDS011;58572;48.110;19.838;2023-03-22T13:11:43;6.38;;;4.00;;
70920;SDS011;58572;48.110;19.838;2023-03-22T13:14:12;6.03;;;4.20;;
70920;SDS011;58572;48.110;19.838;2023-03-22T13:17:14;8.43;;;4.13;;
70920;SDS011;58572;48.110;19.838;2023-03-22T13:20:00;6.65;;;4.35;;
70920;SDS011;58572;48.110;19.838;2023-03-22T13:23:01;7.47;;;3.90;;
70920;SDS011;58572;48.110;19.838;2023-03-22T13:25:35;6.78;;;3.97;;
70920;SDS011;58572;48.110;19.838;2023-03-22T13:28:18;6.60;;;3.72;;
70920;SDS011;58572;48.110;19.838;2023-03-22T13:30:50;6.30;;;3.78;;
70920;SDS011;58572;48.110;19.838;2023-03-22T13:33:23;8.40;;;3.88;;
70920;SDS011;58572;48.110;19.838;2023-03-22T13:35:53;5.10;;;3.08;;
70920;SDS011;58572;48.110;19.838;2023-03-22T13:38:23;4.95;;;2.88;;
70920;SDS011;58572;48.110;19.838;2023-03-22T13:40:55;6.00;;;3.33;;
70920;SDS011;58572;48.110;19.838;2023-03-22T13:43:27;5.43;;;3.05;;
70920;SDS011;58572;48.110;19.838;2023-03-22T13:46:00;4.80;;;2.53;;
70920;SDS011;58572;48.110;19.838;2023-03-22T13:48:51;5.05;;;3.05;;
70920;SDS011;58572;48.110;19.838;2023-03-22T13:51:25;6.97;;;3.65;;
70920;SDS011;58572;48.110;19.838;2023-03-22T13:53:57;5.93;;;3.53;;
70920;SDS011;58572;48.110;19.838;2023-03-22T13:56:47;5.57;;;3.00;;
70920;SDS011;58572;48.110;19.838;2023-03-22T13:59:19;4.10;;;2.60;;
70920;SDS011;58572;48.110;19.838;2023-03-22T14:01:51;5.20;;;3.47;;
70920;SDS011;58572;48.110;19.838;2023-03-22T14:04:22;5.90;;;3.65;;
70920;SDS011;58572;48.110;19.838;2023-03-22T14:06:55;6.47;;;3.22;;
70920;SDS011;58572;48.110;19.838;2023-03-22T14:09:27;7.43;;;4.10;;
70920;SDS011;58572;48.110;19.838;2023-03-22T14:11:59;6.28;;;4.43;;
70920;SDS011;58572;48.110;19.838;2023-03-22T14:14:34;5.18;;;3.45;;
70920;SDS011;58572;48.110;19.838;2023-03-22T14:17:10;7.43;;;4.75;;
70920;SDS011;58572;48.110;19.838;2023-03-22T14:19:44;7.93;;;4.75;;
70920;SDS011;58572;48.110;19.838;2023-03-22T14:22:13;6.50;;;3.70;;
70920;SDS011;58572;48.110;19.838;2023-03-22T14:24:46;6.28;;;4.03;;
70920;SDS011;58572;48.110;19.838;2023-03-22T14:27:15;6.40;;;3.72;;
70920;SDS011;58572;48.110;19.838;2023-03-22T14:29:44;7.25;;;3.80;;
70920;SDS011;58572;48.110;19.838;2023-03-22T14:32:13;6.35;;;3.92;;
70920;SDS011;58572;48.110;19.838;2023-03-22T14:34:45;6.53;;;3.42;;
70920;SDS011;58572;48.110;19.838;2023-03-22T14:37:14;8.38;;;3.60;;
70920;SDS011;58572;48.110;19.838;2023-03-22T14:39:43;7.30;;;3.97;;
70920;SDS011;58572;48.110;19.838;2023-03-22T14:42:15;7.15;;;3.55;;
70920;SDS011;58572;48.110;19.838;2023-03-22T14:44:52;7.50;;;3.95;;
70920;SDS011;58572;48.110;19.838;2023-03-22T14:47:20;7.28;;;3.53;;
70920;SDS011;58572;48.110;19.838;2023-03-22T14:49:55;7.30;;;3.63;;
70920;SDS011;58572;48.110;19.838;2023-03-22T14:52:23;7.18;;;3.85;;
70920;SDS011;58572;48.110;19.838;2023-03-22T14:54:54;6.28;;;4.43;;
70920;SDS011;58572;48.110;19.838;2023-03-22T14:57:24;5.53;;;3.55;;
70920;SDS011;58572;48.110;19.838;2023-03-22T14:59:53;7.68;;;3.50;;
70920;SDS011;58572;48.110;19.838;2023-03-22T15:02:27;6.03;;;3.30;;
70920;SDS011;58572;48.110;19.838;2023-03-22T15:05:01;6.50;;;4.10;;
70920;SDS011;58572;48.110;19.838;2023-03-22T15:07:31;6.43;;;3.55;;
70920;SDS011;58572;48.110;19.838;2023-03-22T15:10:10;6.45;;;3.85;;
70920;SDS011;58572;48.110;19.838;2023-03-22T15:12:39;8.55;;;3.58;;
70920;SDS011;58572;48.110;19.838;2023-03-22T15:15:09;6.47;;;4.00;;
70920;SDS011;58572;48.110;19.838;2023-03-22T15:17:37;9.05;;;3.45;;
70920;SDS011;58572;48.110;19.838;2023-03-22T15:20:06;6.97;;;3.90;;
70920;SDS011;58572;48.110;19.838;2023-03-22T15:22:36;7.05;;;3.63;;
70920;SDS011;58572;48.110;19.838;2023-03-22T15:25:04;6.47;;;3.63;;